Charlottetown, Prince Edward Island

12:03 AM AST on February 08, 2016 (GMT -0400)
Charlottetown | | Change Station
CLOSE
Current Station
Airport
Location: Charlottetown,
Elevation: 157 ft
Nearby Weather Stations

Elev 157 ft 46.29 °N, 63.13 °W | Updated 1 hour ago

Clear
Clear
16 °F
Feels Like 2 °F
N
13
Wind Variable Wind from NW
Gusts 22 mph

Today is forecast to be nearly the same temperature as yesterday.

Today
High -- | Low -- °F
--% Chance of Precip.
Yesterday
High -- | Low -- °F
Precip. -- in
Pressure 30.25 in
Visibility 15.0 miles
Clouds Clear
Windchill 2 °F
Dew Point 3 °F
Humidity 58%
Rainfall 0.00 in
Snow Depth Not available.
7:26 AM 5:27 PM
Waning Crescent, 0% visible
METAR CYYG 080300Z 32011G19KT 15SM SKC M09/M16 A3023 RMK SLP242
Pressure 30.25 in
Visibility 15.0 miles
Clouds Clear
Windchill 2 °F
Dew Point 3 °F
Humidity 58%
Rainfall 0.00 in
Snow Depth Not available.
7:26 AM 5:27 PM
Waning Crescent, 0% visible
METAR CYYG 080300Z 32011G19KT 15SM SKC M09/M16 A3023 RMK SLP242
Nowcast |

Blowing Snow Advisory in effect

×

10-Day Weather Forecast

No radar image for this location.
×

Almanac

Astronomy

Feb. 08, 2016 Rise Set
Actual Time
Civil Twilight
Nautical Twilight
Astronomical Twilight
Moon
Length of Visible Light
Length of Day
Tomorrow will be .
, % of the Moon is Illuminated

Today's Extremes

Country Highs Country Lows

Community

WunderPhotos

Upload Photos

1,891,378 photos uploaded!

WunderBlog® & News

Nearby

Air Quality

  Air Quality AQ Index Pollutant
Not available.

Snow Depth

Station Depth Elevation

Earthquake Activity

City Distance Mag. Time & Date
Minimum magnitude displayed is 2.5.

Coastal Water Temperatures

Place Temperature

Stations

Nearby Weather Stations

Station Location Temp. Windchill Dew Point Humidity Wind Precip. Elev Updated Type
                   

Watches & Warnings

There are currently no watches in effect.